Terminal Aerodrome Forecast
Issued by NWS Wilmington, OH

Current Version | Previous Version | Text Only | Print | Product List | Glossary Off
Versions: 1 2 3 4 5 6 7 8 9 10 11 12 13 14 15 16 17 18

000
FTUS41 KILN 251100
TAFILN
TAF
KILN 251130Z 2512/2612 24007KT P6SM SCT250
     FM251600 32006KT P6SM SCT035 BKN250
     FM252100 04006KT P6SM BKN150
     FM260300 03008KT P6SM OVC080
     FM260900 02008KT P6SM OVC035=

USA.gov is the U.S. government's official web portal to all federal, state and local government web resources and services.